sensor_id;sensor_type;location;lat;lon;timestamp;P1;durP1;ratioP1;P2;durP2;ratioP2
15665;SDS011;20725;51.196;3.510;2022-07-15T00:01:10;33.13;;;22.00;;
15665;SDS011;20725;51.196;3.510;2022-07-15T00:03:40;30.63;;;25.53;;
15665;SDS011;20725;51.196;3.510;2022-07-15T00:06:07;15.63;;;12.63;;
15665;SDS011;20725;51.196;3.510;2022-07-15T00:08:42;13.53;;;8.97;;
15665;SDS011;20725;51.196;3.510;2022-07-15T00:11:09;15.33;;;9.20;;
15665;SDS011;20725;51.196;3.510;2022-07-15T00:13:36;14.67;;;8.83;;
15665;SDS011;20725;51.196;3.510;2022-07-15T00:16:05;10.67;;;7.43;;
15665;SDS011;20725;51.196;3.510;2022-07-15T00:18:43;9.87;;;5.13;;
15665;SDS011;20725;51.196;3.510;2022-07-15T00:21:12;9.47;;;4.37;;
15665;SDS011;20725;51.196;3.510;2022-07-15T00:23:41;9.03;;;3.87;;
15665;SDS011;20725;51.196;3.510;2022-07-15T00:26:10;5.03;;;3.50;;
15665;SDS011;20725;51.196;3.510;2022-07-15T00:28:37;11.30;;;6.27;;
15665;SDS011;20725;51.196;3.510;2022-07-15T00:31:04;12.10;;;7.33;;
15665;SDS011;20725;51.196;3.510;2022-07-15T00:33:31;15.93;;;6.90;;
15665;SDS011;20725;51.196;3.510;2022-07-15T00:35:58;8.20;;;5.40;;
15665;SDS011;20725;51.196;3.510;2022-07-15T00:38:26;6.90;;;3.90;;
15665;SDS011;20725;51.196;3.510;2022-07-15T00:40:54;5.70;;;3.23;;
15665;SDS011;20725;51.196;3.510;2022-07-15T00:43:21;9.63;;;3.50;;
15665;SDS011;20725;51.196;3.510;2022-07-15T00:45:48;12.87;;;3.90;;
15665;SDS011;20725;51.196;3.510;2022-07-15T00:48:15;6.93;;;4.53;;
15665;SDS011;20725;51.196;3.510;2022-07-15T00:50:42;10.27;;;5.50;;
15665;SDS011;20725;51.196;3.510;2022-07-15T00:53:10;6.70;;;5.03;;
15665;SDS011;20725;51.196;3.510;2022-07-15T00:55:42;9.63;;;5.47;;
15665;SDS011;20725;51.196;3.510;2022-07-15T00:58:13;6.20;;;3.80;;
15665;SDS011;20725;51.196;3.510;2022-07-15T01:00:44;8.43;;;3.60;;
15665;SDS011;20725;51.196;3.510;2022-07-15T01:03:13;8.17;;;3.70;;
15665;SDS011;20725;51.196;3.510;2022-07-15T01:05:42;5.47;;;3.30;;
15665;SDS011;20725;51.196;3.510;2022-07-15T01:08:11;6.53;;;3.70;;
15665;SDS011;20725;51.196;3.510;2022-07-15T01:10:38;4.27;;;3.20;;
15665;SDS011;20725;51.196;3.510;2022-07-15T01:13:06;12.07;;;4.20;;
15665;SDS011;20725;51.196;3.510;2022-07-15T01:15:35;9.93;;;3.77;;
15665;SDS011;20725;51.196;3.510;2022-07-15T01:18:02;6.73;;;4.57;;
15665;SDS011;20725;51.196;3.510;2022-07-15T01:20:30;4.83;;;3.70;;
15665;SDS011;20725;51.196;3.510;2022-07-15T01:22:58;10.67;;;3.77;;
15665;SDS011;20725;51.196;3.510;2022-07-15T01:25:27;8.67;;;4.17;;
15665;SDS011;20725;51.196;3.510;2022-07-15T01:27:54;6.87;;;4.10;;
15665;SDS011;20725;51.196;3.510;2022-07-15T01:30:21;9.47;;;3.90;;
15665;SDS011;20725;51.196;3.510;2022-07-15T01:32:48;8.07;;;4.20;;
15665;SDS011;20725;51.196;3.510;2022-07-15T01:35:15;6.17;;;3.83;;
15665;SDS011;20725;51.196;3.510;2022-07-15T01:37:43;5.47;;;4.10;;
15665;SDS011;20725;51.196;3.510;2022-07-15T01:40:11;9.77;;;4.23;;
15665;SDS011;20725;51.196;3.510;2022-07-15T01:42:38;5.60;;;3.83;;
15665;SDS011;20725;51.196;3.510;2022-07-15T01:45:06;9.07;;;4.03;;
15665;SDS011;20725;51.196;3.510;2022-07-15T01:47:40;5.30;;;3.90;;
15665;SDS011;20725;51.196;3.510;2022-07-15T01:50:10;5.30;;;3.83;;
15665;SDS011;20725;51.196;3.510;2022-07-15T01:52:40;8.17;;;3.50;;
15665;SDS011;20725;51.196;3.510;2022-07-15T01:55:08;5.60;;;3.60;;
15665;SDS011;20725;51.196;3.510;2022-07-15T01:57:37;7.90;;;4.73;;
15665;SDS011;20725;51.196;3.510;2022-07-15T02:00:05;5.23;;;3.87;;
15665;SDS011;20725;51.196;3.510;2022-07-15T02:02:34;7.70;;;4.17;;
15665;SDS011;20725;51.196;3.510;2022-07-15T02:05:01;10.60;;;4.00;;
15665;SDS011;20725;51.196;3.510;2022-07-15T02:07:29;9.77;;;3.73;;
15665;SDS011;20725;51.196;3.510;2022-07-15T02:09:56;4.13;;;3.70;;
15665;SDS011;20725;51.196;3.510;2022-07-15T02:12:23;6.20;;;4.00;;
15665;SDS011;20725;51.196;3.510;2022-07-15T02:14:52;7.07;;;3.77;;
15665;SDS011;20725;51.196;3.510;2022-07-15T02:17:19;8.93;;;4.03;;
15665;SDS011;20725;51.196;3.510;2022-07-15T02:19:46;6.67;;;3.60;;
15665;SDS011;20725;51.196;3.510;2022-07-15T02:22:13;11.73;;;3.97;;
15665;SDS011;20725;51.196;3.510;2022-07-15T02:24:41;5.73;;;3.63;;
15665;SDS011;20725;51.196;3.510;2022-07-15T02:27:08;8.57;;;3.97;;
15665;SDS011;20725;51.196;3.510;2022-07-15T02:29:35;6.70;;;4.17;;
15665;SDS011;20725;51.196;3.510;2022-07-15T02:32:04;8.27;;;5.23;;
15665;SDS011;20725;51.196;3.510;2022-07-15T02:34:32;9.90;;;4.80;;
15665;SDS011;20725;51.196;3.510;2022-07-15T02:36:59;6.53;;;4.80;;
15665;SDS011;20725;51.196;3.510;2022-07-15T02:39:28;10.87;;;4.50;;
15665;SDS011;20725;51.196;3.510;2022-07-15T02:41:56;8.40;;;4.77;;
15665;SDS011;20725;51.196;3.510;2022-07-15T02:44:25;6.30;;;4.47;;
15665;SDS011;20725;51.196;3.510;2022-07-15T02:46:52;8.70;;;4.37;;
15665;SDS011;20725;51.196;3.510;2022-07-15T02:49:21;7.10;;;4.33;;
15665;SDS011;20725;51.196;3.510;2022-07-15T02:51:48;8.80;;;4.70;;
15665;SDS011;20725;51.196;3.510;2022-07-15T02:54:15;6.10;;;4.23;;
15665;SDS011;20725;51.196;3.510;2022-07-15T02:56:42;7.53;;;4.80;;
15665;SDS011;20725;51.196;3.510;2022-07-15T02:59:09;6.67;;;5.10;;
15665;SDS011;20725;51.196;3.510;2022-07-15T03:01:36;9.83;;;4.37;;
15665;SDS011;20725;51.196;3.510;2022-07-15T03:04:03;8.13;;;5.17;;
15665;SDS011;20725;51.196;3.510;2022-07-15T03:06:32;7.80;;;4.40;;
15665;SDS011;20725;51.196;3.510;2022-07-15T03:08:59;6.93;;;4.40;;
15665;SDS011;20725;51.196;3.510;2022-07-15T03:11:26;5.07;;;3.97;;
15665;SDS011;20725;51.196;3.510;2022-07-15T03:13:54;7.97;;;4.87;;
15665;SDS011;20725;51.196;3.510;2022-07-15T03:16:21;7.27;;;4.40;;
15665;SDS011;20725;51.196;3.510;2022-07-15T03:18:48;9.37;;;4.73;;
15665;SDS011;20725;51.196;3.510;2022-07-15T03:21:15;7.03;;;4.60;;
15665;SDS011;20725;51.196;3.510;2022-07-15T03:23:48;11.30;;;4.97;;
15665;SDS011;20725;51.196;3.510;2022-07-15T03:26:15;11.17;;;4.70;;
15665;SDS011;20725;51.196;3.510;2022-07-15T03:28:42;13.07;;;5.60;;
15665;SDS011;20725;51.196;3.510;2022-07-15T03:31:10;11.17;;;4.83;;
15665;SDS011;20725;51.196;3.510;2022-07-15T03:33:37;7.33;;;4.43;;
15665;SDS011;20725;51.196;3.510;2022-07-15T03:36:05;7.30;;;5.23;;
15665;SDS011;20725;51.196;3.510;2022-07-15T03:38:33;6.10;;;4.83;;
15665;SDS011;20725;51.196;3.510;2022-07-15T03:41:02;7.93;;;4.77;;
15665;SDS011;20725;51.196;3.510;2022-07-15T03:43:29;10.90;;;6.97;;
15665;SDS011;20725;51.196;3.510;2022-07-15T03:45:56;7.60;;;4.67;;
15665;SDS011;20725;51.196;3.510;2022-07-15T03:48:23;5.57;;;4.67;;
15665;SDS011;20725;51.196;3.510;2022-07-15T03:50:50;11.53;;;5.53;;
15665;SDS011;20725;51.196;3.510;2022-07-15T03:53:17;8.17;;;5.73;;
15665;SDS011;20725;51.196;3.510;2022-07-15T03:55:44;8.20;;;5.70;;
15665;SDS011;20725;51.196;3.510;2022-07-15T03:58:12;9.90;;;4.70;;
15665;SDS011;20725;51.196;3.510;2022-07-15T04:00:39;7.93;;;5.40;;
15665;SDS011;20725;51.196;3.510;2022-07-15T04:03:08;10.60;;;5.80;;
15665;SDS011;20725;51.196;3.510;2022-07-15T04:05:38;6.00;;;5.37;;
15665;SDS011;20725;51.196;3.510;2022-07-15T04:08:05;6.83;;;5.17;;
15665;SDS011;20725;51.196;3.510;2022-07-15T04:10:32;7.37;;;5.67;;
15665;SDS011;20725;51.196;3.510;2022-07-15T04:12:59;7.50;;;5.23;;
15665;SDS011;20725;51.196;3.510;2022-07-15T04:15:27;8.93;;;4.83;;
15665;SDS011;20725;51.196;3.510;2022-07-15T04:17:54;5.17;;;4.10;;
15665;SDS011;20725;51.196;3.510;2022-07-15T04:20:23;5.87;;;4.17;;
15665;SDS011;20725;51.196;3.510;2022-07-15T04:22:50;6.27;;;4.23;;
15665;SDS011;20725;51.196;3.510;2022-07-15T04:25:19;6.57;;;4.67;;
15665;SDS011;20725;51.196;3.510;2022-07-15T04:27:47;7.73;;;5.10;;
15665;SDS011;20725;51.196;3.510;2022-07-15T04:30:14;10.10;;;5.30;;
15665;SDS011;20725;51.196;3.510;2022-07-15T04:32:43;8.13;;;4.97;;
15665;SDS011;20725;51.196;3.510;2022-07-15T04:35:12;8.33;;;4.80;;
15665;SDS011;20725;51.196;3.510;2022-07-15T04:37:39;5.13;;;4.63;;
15665;SDS011;20725;51.196;3.510;2022-07-15T04:40:07;9.57;;;5.03;;
15665;SDS011;20725;51.196;3.510;2022-07-15T04:42:36;7.03;;;4.70;;
15665;SDS011;20725;51.196;3.510;2022-07-15T04:45:05;6.43;;;5.13;;
15665;SDS011;20725;51.196;3.510;2022-07-15T04:47:33;6.17;;;4.27;;
15665;SDS011;20725;51.196;3.510;2022-07-15T04:50:02;6.77;;;4.77;;
15665;SDS011;20725;51.196;3.510;2022-07-15T04:52:47;14.60;;;5.53;;
15665;SDS011;20725;51.196;3.510;2022-07-15T04:55:14;10.00;;;6.00;;
15665;SDS011;20725;51.196;3.510;2022-07-15T04:57:41;10.20;;;5.80;;
15665;SDS011;20725;51.196;3.510;2022-07-15T05:00:09;10.07;;;5.27;;
15665;SDS011;20725;51.196;3.510;2022-07-15T05:02:36;8.90;;;5.70;;
15665;SDS011;20725;51.196;3.510;2022-07-15T05:05:05;10.07;;;5.73;;
15665;SDS011;20725;51.196;3.510;2022-07-15T05:07:35;9.47;;;5.53;;
15665;SDS011;20725;51.196;3.510;2022-07-15T05:10:02;8.03;;;5.07;;
15665;SDS011;20725;51.196;3.510;2022-07-15T05:12:29;12.33;;;5.60;;
15665;SDS011;20725;51.196;3.510;2022-07-15T05:14:56;9.60;;;5.30;;
15665;SDS011;20725;51.196;3.510;2022-07-15T05:17:23;6.63;;;5.40;;
15665;SDS011;20725;51.196;3.510;2022-07-15T05:19:51;11.53;;;5.30;;
15665;SDS011;20725;51.196;3.510;2022-07-15T05:22:19;9.47;;;5.20;;
15665;SDS011;20725;51.196;3.510;2022-07-15T05:24:52;6.23;;;4.87;;
15665;SDS011;20725;51.196;3.510;2022-07-15T05:27:19;8.77;;;5.30;;
15665;SDS011;20725;51.196;3.510;2022-07-15T05:29:49;8.43;;;5.60;;
15665;SDS011;20725;51.196;3.510;2022-07-15T05:32:20;9.30;;;6.10;;
15665;SDS011;20725;51.196;3.510;2022-07-15T05:34:47;8.73;;;5.37;;
15665;SDS011;20725;51.196;3.510;2022-07-15T05:37:14;8.07;;;4.97;;
15665;SDS011;20725;51.196;3.510;2022-07-15T05:39:42;6.33;;;4.60;;
15665;SDS011;20725;51.196;3.510;2022-07-15T05:42:19;8.13;;;4.77;;
15665;SDS011;20725;51.196;3.510;2022-07-15T05:44:46;7.40;;;4.40;;
15665;SDS011;20725;51.196;3.510;2022-07-15T05:47:14;6.87;;;4.43;;
15665;SDS011;20725;51.196;3.510;2022-07-15T05:49:41;6.13;;;4.53;;
15665;SDS011;20725;51.196;3.510;2022-07-15T05:52:08;10.40;;;4.63;;
15665;SDS011;20725;51.196;3.510;2022-07-15T05:54:35;5.93;;;4.73;;
15665;SDS011;20725;51.196;3.510;2022-07-15T05:57:04;7.47;;;4.57;;
15665;SDS011;20725;51.196;3.510;2022-07-15T05:59:31;9.07;;;4.67;;
15665;SDS011;20725;51.196;3.510;2022-07-15T06:01:58;8.63;;;4.10;;
15665;SDS011;20725;51.196;3.510;2022-07-15T06:04:25;5.70;;;4.00;;
15665;SDS011;20725;51.196;3.510;2022-07-15T06:06:54;11.33;;;3.30;;
15665;SDS011;20725;51.196;3.510;2022-07-15T06:09:21;14.23;;;3.80;;
15665;SDS011;20725;51.196;3.510;2022-07-15T06:11:48;7.73;;;3.27;;
15665;SDS011;20725;51.196;3.510;2022-07-15T06:14:19;8.43;;;3.13;;
15665;SDS011;20725;51.196;3.510;2022-07-15T06:16:48;5.80;;;2.50;;
15665;SDS011;20725;51.196;3.510;2022-07-15T06:19:15;8.50;;;2.37;;
15665;SDS011;20725;51.196;3.510;2022-07-15T06:21:45;5.33;;;2.47;;
15665;SDS011;20725;51.196;3.510;2022-07-15T06:24:12;9.90;;;2.63;;
15665;SDS011;20725;51.196;3.510;2022-07-15T06:26:39;3.80;;;2.17;;
15665;SDS011;20725;51.196;3.510;2022-07-15T06:29:09;6.23;;;2.13;;
15665;SDS011;20725;51.196;3.510;2022-07-15T06:37:54;6.30;;;1.80;;
15665;SDS011;20725;51.196;3.510;2022-07-15T06:40:49;4.73;;;1.40;;
15665;SDS011;20725;51.196;3.510;2022-07-15T06:46:54;3.20;;;1.23;;
15665;SDS011;20725;51.196;3.510;2022-07-15T06:56:32;1.93;;;1.03;;
15665;SDS011;20725;51.196;3.510;2022-07-15T06:59:33;2.93;;;1.30;;
15665;SDS011;20725;51.196;3.510;2022-07-15T07:30:50;2.08;;;0.82;;
15665;SDS011;20725;51.196;3.510;2022-07-15T07:33:31;3.08;;;1.05;;
15665;SDS011;20725;51.196;3.510;2022-07-15T07:36:57;3.53;;;1.20;;
15665;SDS011;20725;51.196;3.510;2022-07-15T07:39:44;3.05;;;1.10;;
15665;SDS011;20725;51.196;3.510;2022-07-15T07:53:03;3.33;;;0.95;;
15665;SDS011;20725;51.196;3.510;2022-07-15T07:55:39;1.70;;;0.70;;
15665;SDS011;20725;51.196;3.510;2022-07-15T07:59:18;3.88;;;1.35;;
15665;SDS011;20725;51.196;3.510;2022-07-15T08:02:09;8.32;;;0.80;;
15665;SDS011;20725;51.196;3.510;2022-07-15T08:04:55;4.88;;;0.80;;
15665;SDS011;20725;51.196;3.510;2022-07-15T08:08:11;4.07;;;0.90;;
15665;SDS011;20725;51.196;3.510;2022-07-15T08:13:46;2.25;;;0.73;;
15665;SDS011;20725;51.196;3.510;2022-07-15T08:18:43;2.90;;;0.95;;
15665;SDS011;20725;51.196;3.510;2022-07-15T08:21:55;2.67;;;0.90;;
15665;SDS011;20725;51.196;3.510;2022-07-15T08:32:03;3.17;;;0.65;;
15665;SDS011;20725;51.196;3.510;2022-07-15T08:35:07;1.88;;;0.60;;
15665;SDS011;20725;51.196;3.510;2022-07-15T08:38:13;4.00;;;0.90;;
15665;SDS011;20725;51.196;3.510;2022-07-15T08:41:33;2.00;;;0.80;;
15665;SDS011;20725;51.196;3.510;2022-07-15T09:01:48;2.80;;;0.80;;
15665;SDS011;20725;51.196;3.510;2022-07-15T09:04:34;1.42;;;1.00;;
15665;SDS011;20725;51.196;3.510;2022-07-15T09:07:27;3.20;;;1.10;;
15665;SDS011;20725;51.196;3.510;2022-07-15T09:10:19;3.78;;;0.80;;
15665;SDS011;20725;51.196;3.510;2022-07-15T09:12:54;1.75;;;1.00;;
15665;SDS011;20725;51.196;3.510;2022-07-15T09:36:02;3.33;;;1.02;;
15665;SDS011;20725;51.196;3.510;2022-07-15T09:38:51;4.40;;;1.27;;
15665;SDS011;20725;51.196;3.510;2022-07-15T09:41:28;2.05;;;1.05;;
15665;SDS011;20725;51.196;3.510;2022-07-15T09:44:08;4.68;;;1.10;;
15665;SDS011;20725;51.196;3.510;2022-07-15T09:46:49;12.40;;;1.63;;
15665;SDS011;20725;51.196;3.510;2022-07-15T09:49:36;4.82;;;1.20;;
15665;SDS011;20725;51.196;3.510;2022-07-15T09:52:18;2.40;;;1.00;;
15665;SDS011;20725;51.196;3.510;2022-07-15T09:54:49;2.75;;;1.33;;
15665;SDS011;20725;51.196;3.510;2022-07-15T09:57:20;2.92;;;1.00;;
15665;SDS011;20725;51.196;3.510;2022-07-15T09:59:49;1.73;;;1.08;;
15665;SDS011;20725;51.196;3.510;2022-07-15T10:02:26;2.17;;;0.85;;
15665;SDS011;20725;51.196;3.510;2022-07-15T10:04:59;2.63;;;1.20;;
15665;SDS011;20725;51.196;3.510;2022-07-15T10:07:31;3.17;;;1.20;;
15665;SDS011;20725;51.196;3.510;2022-07-15T10:10:01;3.47;;;1.05;;
15665;SDS011;20725;51.196;3.510;2022-07-15T10:12:31;2.85;;;1.20;;
15665;SDS011;20725;51.196;3.510;2022-07-15T10:17:32;4.53;;;1.30;;
15665;SDS011;20725;51.196;3.510;2022-07-15T10:29:33;1.92;;;0.90;;
15665;SDS011;20725;51.196;3.510;2022-07-15T10:36:07;3.38;;;1.17;;
15665;SDS011;20725;51.196;3.510;2022-07-15T11:10:53;3.83;;;0.93;;
15665;SDS011;20725;51.196;3.510;2022-07-15T11:13:47;3.33;;;0.95;;
15665;SDS011;20725;51.196;3.510;2022-07-15T11:16:43;2.03;;;1.08;;
15665;SDS011;20725;51.196;3.510;2022-07-15T11:23:08;6.47;;;1.17;;
15665;SDS011;20725;51.196;3.510;2022-07-15T11:26:21;4.53;;;1.00;;
15665;SDS011;20725;51.196;3.510;2022-07-15T11:29:20;1.40;;;1.00;;
15665;SDS011;20725;51.196;3.510;2022-07-15T11:32:31;2.72;;;1.20;;
15665;SDS011;20725;51.196;3.510;2022-07-15T11:35:32;3.63;;;1.10;;
15665;SDS011;20725;51.196;3.510;2022-07-15T11:38:30;1.60;;;0.90;;
15665;SDS011;20725;51.196;3.510;2022-07-15T12:08:37;3.55;;;1.23;;
15665;SDS011;20725;51.196;3.510;2022-07-15T12:11:33;3.28;;;1.27;;
15665;SDS011;20725;51.196;3.510;2022-07-15T12:14:28;45.88;;;3.38;;
15665;SDS011;20725;51.196;3.510;2022-07-15T12:17:36;2.67;;;1.23;;
15665;SDS011;20725;51.196;3.510;2022-07-15T12:58:02;5.60;;;1.30;;
15665;SDS011;20725;51.196;3.510;2022-07-15T13:01:05;5.93;;;1.10;;
15665;SDS011;20725;51.196;3.510;2022-07-15T13:04:01;5.35;;;0.88;;
15665;SDS011;20725;51.196;3.510;2022-07-15T13:07:08;3.55;;;1.17;;
15665;SDS011;20725;51.196;3.510;2022-07-15T13:10:11;3.88;;;1.25;;
15665;SDS011;20725;51.196;3.510;2022-07-15T13:23:46;3.05;;;1.10;;
15665;SDS011;20725;51.196;3.510;2022-07-15T13:26:35;9.55;;;1.30;;
15665;SDS011;20725;51.196;3.510;2022-07-15T13:29:11;3.40;;;1.10;;
15665;SDS011;20725;51.196;3.510;2022-07-15T13:42:25;2.83;;;1.48;;
15665;SDS011;20725;51.196;3.510;2022-07-15T13:45:16;2.50;;;1.50;;
15665;SDS011;20725;51.196;3.510;2022-07-15T13:47:48;3.53;;;1.23;;
15665;SDS011;20725;51.196;3.510;2022-07-15T13:50:26;4.35;;;1.40;;
15665;SDS011;20725;51.196;3.510;2022-07-15T13:53:13;2.33;;;1.50;;
15665;SDS011;20725;51.196;3.510;2022-07-15T13:55:48;1.60;;;1.30;;
15665;SDS011;20725;51.196;3.510;2022-07-15T13:58:25;4.15;;;1.30;;
15665;SDS011;20725;51.196;3.510;2022-07-15T14:04:19;3.38;;;1.40;;
15665;SDS011;20725;51.196;3.510;2022-07-15T14:06:51;5.40;;;1.30;;
15665;SDS011;20725;51.196;3.510;2022-07-15T14:09:55;3.80;;;1.25;;
15665;SDS011;20725;51.196;3.510;2022-07-15T14:12:33;3.53;;;1.20;;
15665;SDS011;20725;51.196;3.510;2022-07-15T14:18:34;3.38;;;1.33;;
15665;SDS011;20725;51.196;3.510;2022-07-15T14:21:20;18.58;;;2.38;;
15665;SDS011;20725;51.196;3.510;2022-07-15T14:23:56;5.85;;;1.30;;
15665;SDS011;20725;51.196;3.510;2022-07-15T14:26:34;3.15;;;1.52;;
15665;SDS011;20725;51.196;3.510;2022-07-15T14:29:15;3.25;;;1.70;;
15665;SDS011;20725;51.196;3.510;2022-07-15T14:31:57;7.85;;;1.70;;
15665;SDS011;20725;51.196;3.510;2022-07-15T14:34:57;3.45;;;1.55;;
15665;SDS011;20725;51.196;3.510;2022-07-15T14:37:26;3.63;;;1.30;;
15665;SDS011;20725;51.196;3.510;2022-07-15T14:40:02;5.15;;;1.50;;
15665;SDS011;20725;51.196;3.510;2022-07-15T14:42:55;5.15;;;1.83;;
15665;SDS011;20725;51.196;3.510;2022-07-15T14:45:26;3.88;;;1.40;;
15665;SDS011;20725;51.196;3.510;2022-07-15T14:48:00;4.38;;;1.48;;
15665;SDS011;20725;51.196;3.510;2022-07-15T14:53:45;5.47;;;1.50;;
15665;SDS011;20725;51.196;3.510;2022-07-15T14:56:28;2.83;;;1.30;;
15665;SDS011;20725;51.196;3.510;2022-07-15T14:59:01;3.17;;;1.27;;
15665;SDS011;20725;51.196;3.510;2022-07-15T15:02:07;3.65;;;1.20;;
15665;SDS011;20725;51.196;3.510;2022-07-15T15:04:58;7.68;;;1.42;;
15665;SDS011;20725;51.196;3.510;2022-07-15T15:14:32;4.10;;;1.23;;
15665;SDS011;20725;51.196;3.510;2022-07-15T15:17:15;2.38;;;1.35;;
15665;SDS011;20725;51.196;3.510;2022-07-15T15:20:04;4.18;;;1.23;;
15665;SDS011;20725;51.196;3.510;2022-07-15T15:23:21;3.83;;;1.30;;
15665;SDS011;20725;51.196;3.510;2022-07-15T15:46:50;5.43;;;0.83;;
15665;SDS011;20725;51.196;3.510;2022-07-15T15:52:40;2.77;;;0.80;;
15665;SDS011;20725;51.196;3.510;2022-07-15T15:55:25;3.33;;;1.47;;
15665;SDS011;20725;51.196;3.510;2022-07-15T15:58:04;1.60;;;1.07;;
15665;SDS011;20725;51.196;3.510;2022-07-15T16:00:45;9.20;;;1.50;;
15665;SDS011;20725;51.196;3.510;2022-07-15T16:13:50;1.57;;;0.93;;
15665;SDS011;20725;51.196;3.510;2022-07-15T16:17:16;5.67;;;0.80;;
15665;SDS011;20725;51.196;3.510;2022-07-15T16:20:20;3.93;;;0.90;;
15665;SDS011;20725;51.196;3.510;2022-07-15T16:28:56;2.93;;;1.00;;
15665;SDS011;20725;51.196;3.510;2022-07-15T16:31:54;2.87;;;1.07;;
15665;SDS011;20725;51.196;3.510;2022-07-15T16:35:11;3.53;;;0.80;;
15665;SDS011;20725;51.196;3.510;2022-07-15T16:38:01;3.87;;;0.80;;
15665;SDS011;20725;51.196;3.510;2022-07-15T16:40:54;6.97;;;0.90;;
15665;SDS011;20725;51.196;3.510;2022-07-15T17:39:43;3.00;;;0.93;;
15665;SDS011;20725;51.196;3.510;2022-07-15T17:42:36;5.60;;;1.30;;
15665;SDS011;20725;51.196;3.510;2022-07-15T17:45:57;2.40;;;0.73;;
15665;SDS011;20725;51.196;3.510;2022-07-15T17:52:29;11.63;;;1.20;;
15665;SDS011;20725;51.196;3.510;2022-07-15T18:02:19;1.03;;;0.50;;
15665;SDS011;20725;51.196;3.510;2022-07-15T18:05:13;0.80;;;0.60;;
15665;SDS011;20725;51.196;3.510;2022-07-15T18:08:23;0.70;;;0.70;;
15665;SDS011;20725;51.196;3.510;2022-07-15T18:11:30;4.47;;;1.00;;
15665;SDS011;20725;51.196;3.510;2022-07-15T18:14:21;1.50;;;0.90;;
15665;SDS011;20725;51.196;3.510;2022-07-15T18:17:22;2.00;;;1.00;;
15665;SDS011;20725;51.196;3.510;2022-07-15T18:20:16;1.10;;;1.00;;
15665;SDS011;20725;51.196;3.510;2022-07-15T18:23:05;2.00;;;1.10;;
15665;SDS011;20725;51.196;3.510;2022-07-15T18:25:51;2.53;;;1.03;;
15665;SDS011;20725;51.196;3.510;2022-07-15T18:28:39;1.97;;;0.57;;
15665;SDS011;20725;51.196;3.510;2022-07-15T18:31:20;2.03;;;0.90;;
15665;SDS011;20725;51.196;3.510;2022-07-15T18:34:13;8.23;;;1.73;;
15665;SDS011;20725;51.196;3.510;2022-07-15T18:37:00;1.93;;;1.00;;
15665;SDS011;20725;51.196;3.510;2022-07-15T18:39:50;1.47;;;0.90;;
15665;SDS011;20725;51.196;3.510;2022-07-15T18:42:35;2.10;;;1.00;;
15665;SDS011;20725;51.196;3.510;2022-07-15T18:45:23;2.63;;;0.83;;
15665;SDS011;20725;51.196;3.510;2022-07-15T18:48:21;2.83;;;0.80;;
15665;SDS011;20725;51.196;3.510;2022-07-15T18:51:14;3.43;;;0.83;;
15665;SDS011;20725;51.196;3.510;2022-07-15T18:53:50;1.70;;;1.10;;
15665;SDS011;20725;51.196;3.510;2022-07-15T18:56:22;1.23;;;0.87;;
15665;SDS011;20725;51.196;3.510;2022-07-15T18:58:53;0.97;;;0.70;;
15665;SDS011;20725;51.196;3.510;2022-07-15T19:01:30;2.77;;;0.80;;
15665;SDS011;20725;51.196;3.510;2022-07-15T19:04:01;6.13;;;1.10;;
15665;SDS011;20725;51.196;3.510;2022-07-15T19:09:24;4.33;;;1.13;;
15665;SDS011;20725;51.196;3.510;2022-07-15T19:12:01;2.60;;;1.20;;
15665;SDS011;20725;51.196;3.510;2022-07-15T19:14:39;3.47;;;1.10;;
15665;SDS011;20725;51.196;3.510;2022-07-15T19:17:12;2.33;;;1.30;;
15665;SDS011;20725;51.196;3.510;2022-07-15T19:19:44;3.13;;;0.90;;
15665;SDS011;20725;51.196;3.510;2022-07-15T19:22:22;2.07;;;1.27;;
15665;SDS011;20725;51.196;3.510;2022-07-15T19:24:55;1.53;;;0.97;;
15665;SDS011;20725;51.196;3.510;2022-07-15T19:27:24;2.13;;;1.20;;
15665;SDS011;20725;51.196;3.510;2022-07-15T19:30:01;3.30;;;1.10;;
15665;SDS011;20725;51.196;3.510;2022-07-15T19:32:42;1.70;;;0.90;;
15665;SDS011;20725;51.196;3.510;2022-07-15T19:35:24;1.43;;;1.00;;
15665;SDS011;20725;51.196;3.510;2022-07-15T19:38:06;1.33;;;0.90;;
15665;SDS011;20725;51.196;3.510;2022-07-15T19:40:51;1.40;;;1.30;;
15665;SDS011;20725;51.196;3.510;2022-07-15T19:43:29;1.33;;;1.10;;
15665;SDS011;20725;51.196;3.510;2022-07-15T19:46:32;1.13;;;0.97;;
15665;SDS011;20725;51.196;3.510;2022-07-15T19:52:31;1.83;;;1.10;;
15665;SDS011;20725;51.196;3.510;2022-07-15T19:55:36;1.00;;;0.90;;
15665;SDS011;20725;51.196;3.510;2022-07-15T19:58:29;1.60;;;1.47;;
15665;SDS011;20725;51.196;3.510;2022-07-15T20:01:40;3.50;;;1.20;;
15665;SDS011;20725;51.196;3.510;2022-07-15T20:04:50;3.87;;;1.30;;
15665;SDS011;20725;51.196;3.510;2022-07-15T20:07:37;1.40;;;1.03;;
15665;SDS011;20725;51.196;3.510;2022-07-15T20:10:15;4.17;;;1.20;;
15665;SDS011;20725;51.196;3.510;2022-07-15T20:13:07;5.20;;;0.97;;
15665;SDS011;20725;51.196;3.510;2022-07-15T20:15:44;4.07;;;1.20;;
15665;SDS011;20725;51.196;3.510;2022-07-15T20:18:16;2.97;;;1.20;;
15665;SDS011;20725;51.196;3.510;2022-07-15T20:20:54;4.93;;;1.17;;
15665;SDS011;20725;51.196;3.510;2022-07-15T20:23:30;2.23;;;1.30;;
15665;SDS011;20725;51.196;3.510;2022-07-15T20:26:25;7.50;;;1.27;;
15665;SDS011;20725;51.196;3.510;2022-07-15T20:32:43;14.00;;;1.60;;
15665;SDS011;20725;51.196;3.510;2022-07-15T20:35:23;12.23;;;1.73;;
15665;SDS011;20725;51.196;3.510;2022-07-15T20:41:16;12.87;;;1.73;;
15665;SDS011;20725;51.196;3.510;2022-07-15T20:44:10;13.07;;;1.73;;
15665;SDS011;20725;51.196;3.510;2022-07-15T20:50:11;11.57;;;1.70;;
15665;SDS011;20725;51.196;3.510;2022-07-15T20:55:36;7.77;;;1.90;;
15665;SDS011;20725;51.196;3.510;2022-07-15T20:58:39;9.93;;;2.13;;
15665;SDS011;20725;51.196;3.510;2022-07-15T21:01:41;6.23;;;1.60;;
15665;SDS011;20725;51.196;3.510;2022-07-15T21:04:34;5.57;;;1.70;;
15665;SDS011;20725;51.196;3.510;2022-07-15T21:11:02;5.70;;;1.70;;
15665;SDS011;20725;51.196;3.510;2022-07-15T21:17:08;5.07;;;1.67;;
15665;SDS011;20725;51.196;3.510;2022-07-15T21:19:53;7.50;;;1.77;;
15665;SDS011;20725;51.196;3.510;2022-07-15T21:22:46;3.07;;;1.87;;
15665;SDS011;20725;51.196;3.510;2022-07-15T21:25:27;5.97;;;1.80;;
15665;SDS011;20725;51.196;3.510;2022-07-15T21:28:26;5.30;;;2.10;;
15665;SDS011;20725;51.196;3.510;2022-07-15T21:34:57;3.57;;;2.00;;
15665;SDS011;20725;51.196;3.510;2022-07-15T21:37:17;3.33;;;2.10;;
15665;SDS011;20725;51.196;3.510;2022-07-15T21:40:30;4.83;;;2.20;;
15665;SDS011;20725;51.196;3.510;2022-07-15T21:43:23;4.23;;;2.40;;
15665;SDS011;20725;51.196;3.510;2022-07-15T21:45:46;4.20;;;2.03;;
15665;SDS011;20725;51.196;3.510;2022-07-15T21:48:57;6.90;;;2.57;;
15665;SDS011;20725;51.196;3.510;2022-07-15T21:51:38;6.60;;;2.20;;
15665;SDS011;20725;51.196;3.510;2022-07-15T21:54:34;3.43;;;2.33;;
15665;SDS011;20725;51.196;3.510;2022-07-15T21:57:19;5.70;;;2.30;;
15665;SDS011;20725;51.196;3.510;2022-07-15T22:00:04;4.20;;;2.73;;
15665;SDS011;20725;51.196;3.510;2022-07-15T22:02:45;6.43;;;2.20;;
15665;SDS011;20725;51.196;3.510;2022-07-15T22:06:44;7.83;;;2.50;;
15665;SDS011;20725;51.196;3.510;2022-07-15T22:08:44;6.80;;;2.60;;
15665;SDS011;20725;51.196;3.510;2022-07-15T22:11:31;8.50;;;2.90;;
15665;SDS011;20725;51.196;3.510;2022-07-15T22:14:16;6.27;;;2.83;;
15665;SDS011;20725;51.196;3.510;2022-07-15T22:20:35;6.53;;;2.97;;
15665;SDS011;20725;51.196;3.510;2022-07-15T22:23:39;4.10;;;2.37;;
15665;SDS011;20725;51.196;3.510;2022-07-15T22:26:15;3.37;;;2.60;;
15665;SDS011;20725;51.196;3.510;2022-07-15T22:29:18;3.70;;;2.60;;
15665;SDS011;20725;51.196;3.510;2022-07-15T22:32:09;7.67;;;2.80;;
15665;SDS011;20725;51.196;3.510;2022-07-15T22:35:03;5.60;;;2.40;;
15665;SDS011;20725;51.196;3.510;2022-07-15T22:40:48;7.60;;;2.37;;